createdAt,value
2018-09-29T00:22:40.399Z,40.8
2018-09-29T00:32:39.636Z,41.1
2018-09-29T00:42:40.184Z,41.2
2018-09-29T00:52:39.835Z,41.5
2018-09-29T01:02:39.055Z,41.8
2018-09-29T01:22:37.843Z,42.7
2018-09-29T01:42:36.899Z,43.6
2018-09-29T01:52:36.095Z,44
2018-09-29T02:02:35.297Z,44.3
2018-09-29T02:12:34.350Z,44.7
2018-09-29T02:22:36.972Z,45.1
2018-09-29T02:52:36.200Z,45.6
2018-09-29T03:02:35.611Z,45.7
2018-09-29T03:32:39.119Z,46.6
2018-09-29T03:42:38.582Z,47
2018-09-29T03:52:38.153Z,47.6
2018-09-29T04:12:37.236Z,47.8
2018-09-29T04:22:42.241Z,47.9
2018-09-29T04:42:41.770Z,47.8
2018-09-29T04:52:41.933Z,47.7
2018-09-29T05:02:44.208Z,47.9
2018-09-29T05:12:47.075Z,47.8
2018-09-29T05:22:48.916Z,47.9
2018-09-29T05:52:51.902Z,45.9
2018-09-29T06:02:53.042Z,44.4
2018-09-29T06:12:52.923Z,42.3
2018-09-29T06:22:53.061Z,40.7
2018-09-29T06:42:53.280Z,38.4
2018-09-29T06:52:53.224Z,37.3
2018-09-29T07:13:01.389Z,34.7
2018-09-29T07:23:01.126Z,33.8
2018-09-29T07:33:00.949Z,32.9
2018-09-29T07:43:00.804Z,32.8
2018-09-29T07:53:00.228Z,32.3
2018-09-29T08:02:59.473Z,32
2018-09-29T08:12:59.036Z,31.7
2018-09-29T08:22:58.501Z,31.5
2018-09-29T08:32:58.249Z,31.3
2018-09-29T08:42:57.643Z,31.2
2018-09-29T08:52:57.428Z,31.1
2018-09-29T09:02:57.016Z,31.1
2018-09-29T09:12:56.706Z,31.2
2018-09-29T09:22:56.804Z,30.9
2018-09-29T09:32:57.173Z,31
2018-09-29T09:42:58.212Z,30.5
2018-09-29T09:52:57.631Z,30
2018-09-29T10:02:57.077Z,29.5
2018-09-29T10:12:56.523Z,29.5
2018-09-29T10:22:56.072Z,29.6
2018-09-29T10:32:55.638Z,29.8
2018-09-29T10:42:55.507Z,29.9
2018-09-29T10:52:55.159Z,29.9
2018-09-29T11:13:03.978Z,29.5
2018-09-29T11:23:03.777Z,29.3
2018-09-29T11:33:03.419Z,29.3
2018-09-29T11:43:03.354Z,29.4
2018-09-29T11:53:03.232Z,29.2
2018-09-29T12:03:02.992Z,29.2
2018-09-29T12:13:02.385Z,29.3
2018-09-29T12:23:02.282Z,29.3
2018-09-29T12:33:01.839Z,29.2
2018-09-29T12:43:02.329Z,29.3
2018-09-29T13:03:12.438Z,29.3
2018-09-29T13:13:13.189Z,29.2
2018-09-29T13:23:13.847Z,29.1
2018-09-29T14:03:29.102Z,29
2018-09-29T14:23:36.626Z,29.1
2018-09-29T14:43:46.346Z,28.8
2018-09-29T14:53:46.135Z,28.8
2018-09-29T15:03:45.508Z,28.8
2018-09-29T15:13:45.176Z,28.9
2018-09-29T15:23:44.846Z,28.9
2018-09-29T15:53:55.289Z,29.2
2018-09-29T16:03:54.616Z,29.3
2018-09-29T16:34:10.108Z,29.7
2018-09-29T16:44:09.559Z,30
2018-09-29T17:04:10.127Z,30.7
2018-09-29T17:14:09.118Z,31
2018-09-29T17:24:08.983Z,31.3
2018-09-29T18:14:33.537Z,32.4
2018-09-29T18:44:37.213Z,33.3
2018-09-29T19:14:43.881Z,34.4
2018-09-29T19:24:45.759Z,34.7
2018-09-29T19:34:45.206Z,34.9
2018-09-29T19:44:44.698Z,35.1
2018-09-29T19:54:43.935Z,35.3
2018-09-29T20:04:43.024Z,35.5
2018-09-29T20:24:42.855Z,36
2018-09-29T20:44:41.790Z,36.7
2018-09-29T20:54:41.175Z,37
2018-09-29T21:04:40.518Z,37.4
2018-09-29T21:14:40.067Z,37.6
2018-09-29T21:24:39.515Z,37.9
2018-09-29T21:34:39.384Z,38.2
2018-09-29T21:44:38.578Z,38.3
2018-09-29T21:54:38.469Z,38.4
2018-09-29T22:04:37.883Z,38.9
2018-09-29T22:14:37.229Z,38.8
2018-09-29T22:24:36.478Z,38.9
2018-09-29T22:34:36.193Z,39.2
2018-09-29T22:44:35.671Z,39.4
2018-09-29T22:54:35.407Z,39.7
2018-09-29T23:04:34.319Z,39.8
2018-09-29T23:14:33.818Z,40
2018-09-29T23:24:33.288Z,40.4
2018-09-29T23:34:32.740Z,40.8
2018-09-29T23:44:32.188Z,41.4
2018-09-29T23:54:31.736Z,41.6
